createdAt,value
2022-09-27T04:31:00.538Z,0.1
2022-09-27T04:33:00.467Z,0.2
2022-09-27T04:34:00.523Z,0.3
2022-09-27T04:36:00.691Z,0.4
2022-09-27T04:37:00.475Z,0.5
2022-09-27T04:39:01.501Z,0.7
2022-09-27T04:40:01.157Z,0.8
2022-09-27T04:41:03.188Z,1.0
2022-09-27T04:42:00.481Z,1.2
2022-09-27T04:43:00.548Z,1.4
2022-09-27T04:44:00.481Z,1.7
2022-09-27T04:46:00.720Z,2.3
2022-09-27T04:47:00.558Z,2.7
2022-09-27T04:48:00.481Z,3.1
2022-09-27T04:49:00.701Z,3.7
2022-09-27T04:50:02.577Z,4.3
2022-09-27T04:51:01.102Z,5.3
2022-09-27T04:52:00.939Z,6.3
2022-09-27T04:53:00.488Z,7.3
2022-09-27T04:54:00.481Z,9.0
2022-09-27T04:55:00.526Z,10.7
2022-09-27T04:56:00.688Z,13.3
2022-09-27T04:57:00.971Z,15.9
2022-09-27T04:58:01.509Z,18.5
2022-09-27T04:59:00.479Z,22.3
2022-09-27T05:01:15.536Z,31.6
2022-09-27T05:02:15.815Z,37.0
2022-09-27T05:03:05.714Z,42.4
2022-09-27T05:04:01.509Z,50.6
2022-09-27T05:05:00.808Z,58.8
2022-09-27T05:06:01.509Z,71.5
2022-09-27T05:07:00.818Z,84.3
2022-09-27T05:08:00.885Z,97.0
2022-09-27T05:09:00.481Z,113.4
2022-09-27T05:10:00.536Z,129.8
2022-09-27T05:11:00.484Z,149.3
2022-09-27T05:12:01.581Z,168.9
2022-09-27T05:13:00.698Z,188.4
2022-09-27T05:14:00.485Z,207.3
2022-09-27T05:15:01.012Z,226.1
2022-09-27T05:16:05.496Z,244.6
2022-09-27T05:17:00.931Z,263.1
2022-09-27T05:18:00.725Z,281.5
2022-09-27T05:19:00.484Z,302.0
2022-09-27T05:20:00.538Z,322.5
2022-09-27T05:21:01.033Z,342.9
2022-09-27T05:22:01.580Z,363.3
2022-09-27T05:23:00.728Z,383.7
2022-09-27T05:24:00.492Z,401.8
2022-09-27T05:25:00.521Z,419.9
2022-09-27T05:26:00.488Z,440.5
2022-09-27T05:27:01.580Z,461.0
2022-09-27T05:28:00.693Z,481.5
2022-09-27T05:29:00.493Z,508.0
2022-09-27T05:30:01.149Z,534.5
2022-09-27T05:31:00.573Z,570.0
2022-09-27T05:32:01.524Z,605.5
2022-09-27T05:33:00.697Z,641.1
2022-09-27T05:34:00.531Z,686.1
2022-09-27T05:35:00.539Z,731.2
2022-09-27T05:36:00.492Z,784.1
2022-09-27T05:37:01.525Z,837.1
2022-09-27T05:38:01.724Z,890.0
2022-09-27T05:39:00.490Z,958.7
2022-09-27T05:40:05.441Z,1027.5
2022-09-27T05:41:01.642Z,1103.1
2022-09-27T05:42:00.490Z,1178.7
2022-09-27T05:43:00.704Z,1254.3
2022-09-27T05:44:00.496Z,1322.2
2022-09-27T05:45:01.046Z,1390.1
2022-09-27T05:46:00.575Z,1434.0
2022-09-27T05:47:01.523Z,1477.9
2022-09-27T05:48:01.794Z,1521.7
2022-09-27T05:49:00.488Z,1564.3
2022-09-27T05:50:00.858Z,1606.9
2022-09-27T05:51:00.490Z,1658.4
2022-09-27T05:52:00.592Z,1709.9
2022-09-27T05:53:00.920Z,1761.3
2022-09-27T05:54:00.525Z,1821.1
2022-09-27T05:56:00.488Z,1966.6
2022-09-27T05:57:00.500Z,2052.3
2022-09-27T05:58:00.838Z,2137.9
2022-09-27T05:59:00.492Z,2286.5
2022-09-27T06:01:00.674Z,2686.3
2022-09-27T06:02:00.532Z,2937.4
2022-09-27T06:03:15.539Z,3188.5
2022-09-27T06:04:00.773Z,3522.5
2022-09-27T06:05:00.560Z,3856.5
2022-09-27T06:06:00.495Z,4238.3
2022-09-27T06:07:00.493Z,4620.0
2022-09-27T06:08:00.494Z,5001.7
2022-09-27T06:11:00.564Z,6131.5
2022-09-27T06:12:00.498Z,6500.5
2022-09-27T06:13:00.555Z,6869.5
2022-09-27T06:14:00.701Z,7205.4
2022-09-27T06:16:05.493Z,7858.4
2022-09-27T06:17:00.615Z,8175.5
2022-09-27T06:18:00.507Z,8492.7
2022-09-27T06:19:01.008Z,8801.3
2022-09-27T06:21:00.499Z,9453.5
2022-09-27T06:22:00.521Z,9797.1
2022-09-27T06:23:00.759Z,10140.6
2022-09-27T06:24:00.710Z,10531.0
2022-09-27T06:25:00.547Z,10921.4
2022-09-27T06:26:00.498Z,11331.4
2022-09-27T06:27:00.505Z,11741.4
2022-09-27T06:28:00.499Z,12151.4
2022-09-27T06:29:00.710Z,12431.1
2022-09-27T06:30:01.060Z,12710.9
2022-09-27T06:31:00.644Z,12838.3
2022-09-27T06:32:00.508Z,12965.8
2022-09-27T06:33:00.752Z,13093.3
2022-09-27T06:34:00.708Z,13111.7
2022-09-27T06:35:00.547Z,13130.1
2022-09-27T06:36:00.496Z,13003.2
2022-09-27T06:37:00.502Z,12876.3
2022-09-27T06:38:00.531Z,12749.5
2022-09-27T06:39:06.718Z,12505.5
2022-09-27T06:40:00.542Z,12261.5
2022-09-27T06:41:00.515Z,12033.1
2022-09-27T06:42:00.556Z,11804.8
2022-09-27T06:43:00.502Z,11576.5
2022-09-27T06:44:01.001Z,11544.2
2022-09-27T06:46:00.525Z,11617.3
2022-09-27T06:47:00.516Z,11722.6
2022-09-27T06:48:00.509Z,11827.9
2022-09-27T06:49:01.805Z,11999.7
2022-09-27T06:50:00.812Z,12171.4
2022-09-27T06:51:00.511Z,12459.9
2022-09-27T06:52:00.510Z,12748.5
2022-09-27T06:53:00.510Z,13037.0
2022-09-27T06:54:00.745Z,13553.0
2022-09-27T06:55:00.561Z,14069.0
2022-09-27T06:56:00.515Z,14615.2
2022-09-27T06:57:02.583Z,15161.4
2022-09-27T06:58:00.513Z,15707.6
2022-09-27T06:59:00.796Z,16243.5
2022-09-27T07:01:00.538Z,17256.9
2022-09-27T07:02:00.530Z,17734.4
2022-09-27T07:03:00.538Z,18211.9
2022-09-27T07:04:00.719Z,18538.7
2022-09-27T07:05:00.566Z,18865.5
2022-09-27T07:06:00.518Z,19155.8
2022-09-27T07:07:00.511Z,19446.1
2022-09-27T07:08:00.517Z,19736.3
2022-09-27T07:09:00.715Z,19943.3
2022-09-27T07:10:00.591Z,20150.3
2022-09-27T07:11:02.601Z,20382.6
2022-09-27T07:12:00.520Z,20614.9
2022-09-27T07:13:00.519Z,20847.1
2022-09-27T07:14:01.807Z,21150.7
2022-09-27T07:16:00.524Z,21808.2
2022-09-27T07:17:00.523Z,22162.2
2022-09-27T07:18:00.799Z,22516.2
2022-09-27T07:19:00.762Z,22943.5
2022-09-27T07:20:00.771Z,23370.7
2022-09-27T07:21:00.715Z,23777.9
2022-09-27T07:22:00.526Z,24185.1
2022-09-27T07:23:00.519Z,24592.3
2022-09-27T07:24:00.741Z,25026.7
2022-09-27T07:25:00.566Z,25461.1
2022-09-27T07:26:00.545Z,25748.8
2022-09-27T07:27:00.521Z,26036.5
2022-09-27T07:28:00.527Z,26324.1
2022-09-27T07:29:00.795Z,26648.4
2022-09-27T07:31:00.612Z,27347.7
2022-09-27T07:32:00.523Z,27722.8
2022-09-27T07:33:00.520Z,28097.9
2022-09-27T07:34:00.868Z,28706.3
2022-09-27T07:35:00.567Z,29314.7
2022-09-27T07:36:00.521Z,29846.7
2022-09-27T07:37:00.522Z,30378.7
2022-09-27T07:38:00.525Z,30910.7
2022-09-27T07:39:00.866Z,31384.2
2022-09-27T07:40:00.595Z,31857.7
2022-09-27T07:41:00.702Z,32341.3
2022-09-27T07:42:00.551Z,32824.8
2022-09-27T07:43:00.535Z,33308.3
2022-09-27T07:44:00.935Z,33640.0
2022-09-27T07:45:01.380Z,33971.7
2022-09-27T07:46:00.592Z,34340.6
2022-09-27T07:47:00.531Z,34709.5
2022-09-27T07:48:00.808Z,35078.5
2022-09-27T07:49:00.841Z,35278.8
2022-09-27T07:50:00.570Z,35479.1
2022-09-27T07:51:01.560Z,35824.0
2022-09-27T07:52:00.621Z,36168.9
2022-09-27T07:53:00.530Z,36513.7
2022-09-27T07:54:02.418Z,36738.5
2022-09-27T07:55:00.584Z,36963.3
2022-09-27T07:56:00.537Z,37144.6
2022-09-27T07:57:00.533Z,37325.9
2022-09-27T07:58:00.579Z,37507.1
2022-09-27T07:59:01.800Z,37550.4
2022-09-27T08:00:03.068Z,37593.7
2022-09-27T08:01:00.577Z,37523.0
2022-09-27T08:02:01.637Z,37452.3
2022-09-27T08:03:00.530Z,37381.7
2022-09-27T08:04:15.543Z,37404.2
2022-09-27T08:05:00.760Z,37426.7
2022-09-27T08:06:00.509Z,37523.4
2022-09-27T08:07:00.531Z,37620.1
2022-09-27T08:08:00.538Z,37716.7
2022-09-27T08:09:00.537Z,37944.8
2022-09-27T08:10:21.885Z,38172.9
2022-09-27T08:11:00.522Z,38690.3
2022-09-27T08:12:00.547Z,39207.8
2022-09-27T08:13:00.542Z,39725.3
2022-09-27T08:14:05.587Z,40494.2
2022-09-27T08:15:01.279Z,41263.1
2022-09-27T08:16:00.544Z,41959.5
2022-09-27T08:17:01.574Z,42655.9
2022-09-27T08:18:00.543Z,43352.3
2022-09-27T08:19:00.548Z,44246.1
2022-09-27T08:20:00.989Z,45139.9
2022-09-27T08:21:01.630Z,45598.4
2022-09-27T08:22:00.543Z,46056.9
2022-09-27T08:23:00.545Z,46515.3
2022-09-27T08:24:01.570Z,46649.5
2022-09-27T08:25:00.793Z,46783.7
2022-09-27T08:26:00.545Z,46669.8
2022-09-27T08:27:01.571Z,46555.9
2022-09-27T08:28:00.553Z,46441.9
2022-09-27T08:29:00.544Z,46534.7
2022-09-27T08:31:00.546Z,47222.8
2022-09-27T08:32:05.561Z,47818.2
2022-09-27T08:33:00.543Z,48413.6
2022-09-27T08:34:00.549Z,48712.8
2022-09-27T08:35:00.806Z,49012.0
2022-09-27T08:36:01.588Z,49600.9
2022-09-27T08:37:00.545Z,50189.7
2022-09-27T08:38:00.551Z,50778.6
2022-09-27T08:39:00.557Z,51930.5
2022-09-27T08:40:01.561Z,53082.5
2022-09-27T08:41:00.545Z,54562.2
2022-09-27T08:42:00.553Z,56041.9
2022-09-27T08:43:00.553Z,57521.7
2022-09-27T08:44:00.552Z,58641.1
2022-09-27T08:46:00.575Z,60428.0
2022-09-27T08:47:00.552Z,61095.5
2022-09-27T08:48:00.567Z,61763.1
2022-09-27T08:49:00.549Z,62403.9
2022-09-27T08:51:00.550Z,63669.9
2022-09-27T08:52:00.551Z,64295.1
2022-09-27T08:53:00.555Z,64920.2
2022-09-27T08:54:00.549Z,65227.6
2022-09-27T09:15:01.247Z,65535.0
2022-09-27T09:30:01.520Z,65535.0
2022-09-27T10:00:03.951Z,65535.0
2022-09-27T10:30:01.744Z,65535.0
2022-09-27T11:00:03.310Z,65535.0
2022-09-27T11:45:41.507Z,65535.0
2022-09-27T12:00:03.903Z,65535.0
2022-09-27T12:15:08.199Z,65535.0
2022-09-27T12:45:01.396Z,65535.0
2022-09-27T13:00:02.672Z,65535.0
2022-09-27T13:30:02.864Z,65535.0
2022-09-27T13:45:01.483Z,65535.0
2022-09-27T14:00:03.352Z,65535.0
2022-09-27T14:42:01.033Z,65146.5
2022-09-27T14:43:00.699Z,64757.9
2022-09-27T14:44:00.703Z,63499.4
2022-09-27T14:45:01.155Z,62240.9
2022-09-27T14:46:00.666Z,60982.3
2022-09-27T14:47:00.899Z,59491.1
2022-09-27T14:48:00.693Z,57999.8
2022-09-27T14:49:00.662Z,56479.9
2022-09-27T14:50:06.886Z,54959.9
2022-09-27T14:51:04.713Z,53440.0
2022-09-27T14:52:00.875Z,50867.3
2022-09-27T14:53:00.698Z,48294.5
2022-09-27T14:54:00.673Z,46456.0
2022-09-27T14:55:00.676Z,44617.5
2022-09-27T14:56:00.675Z,42778.9
2022-09-27T14:57:00.877Z,41536.1
2022-09-27T14:58:00.718Z,40293.3
2022-09-27T14:59:00.678Z,39294.1
2022-09-27T15:00:01.262Z,38294.9
2022-09-27T15:01:00.673Z,37295.7
2022-09-27T15:02:15.694Z,36475.2
2022-09-27T15:03:01.301Z,35654.7
2022-09-27T15:04:00.714Z,35374.7
2022-09-27T15:06:00.662Z,34814.9
2022-09-27T15:07:00.669Z,35949.2
2022-09-27T15:08:00.905Z,37083.5
2022-09-27T15:09:01.702Z,38358.7
2022-09-27T15:11:00.950Z,40908.9
2022-09-27T15:12:00.679Z,42540.3
2022-09-27T15:13:01.200Z,44171.6
2022-09-27T15:14:00.695Z,46429.3
2022-09-27T15:15:01.726Z,48687.1
2022-09-27T15:16:00.750Z,50944.8
2022-09-27T15:17:00.962Z,53256.6
2022-09-27T15:18:01.039Z,55568.4
2022-09-27T15:19:00.675Z,57368.3
2022-09-27T15:20:01.327Z,59168.1
2022-09-27T15:21:01.116Z,60968.0
2022-09-27T15:22:00.676Z,62406.4
2022-09-27T15:23:00.920Z,63844.8
2022-09-27T15:24:00.675Z,64408.2
2022-09-27T15:25:00.689Z,64971.6
2022-09-27T15:26:00.679Z,65535.0
2022-09-27T15:30:02.046Z,65535.0
2022-09-27T15:45:02.193Z,65535.0
2022-09-27T15:47:01.900Z,65474.7
2022-09-27T15:48:00.678Z,65414.5
2022-09-27T15:49:00.729Z,65226.9
2022-09-27T15:50:02.542Z,65039.3
2022-09-27T15:51:00.678Z,64851.7
2022-09-27T15:52:00.688Z,64495.2
2022-09-27T15:53:00.694Z,64138.7
2022-09-27T15:54:00.718Z,63592.3
2022-09-27T15:56:00.710Z,62499.5
2022-09-27T15:57:00.681Z,61720.9
2022-09-27T15:58:00.687Z,60942.2
2022-09-27T15:59:00.722Z,59916.0
2022-09-27T16:01:00.918Z,57863.6
2022-09-27T16:02:04.153Z,56676.5
2022-09-27T16:03:00.711Z,55489.3
2022-09-27T16:04:00.719Z,54224.2
2022-09-27T16:05:15.840Z,52959.1
2022-09-27T16:06:15.723Z,51693.9
2022-09-27T16:07:00.926Z,50392.2
2022-09-27T16:08:00.705Z,49090.5
2022-09-27T16:09:00.832Z,47777.9
2022-09-27T16:10:01.597Z,46465.3
2022-09-27T16:11:00.762Z,45152.7
2022-09-27T16:12:01.074Z,43892.3
2022-09-27T16:13:00.704Z,42631.9
2022-09-27T16:14:00.829Z,41454.6
2022-09-27T16:16:00.922Z,39100.1
2022-09-27T16:17:00.974Z,37982.9
2022-09-27T16:18:00.787Z,36865.8
2022-09-27T16:19:00.778Z,35802.5
2022-09-27T16:21:00.695Z,33675.8
2022-09-27T16:22:01.016Z,32685.0
2022-09-27T16:23:00.776Z,31694.2
2022-09-27T16:24:04.079Z,30789.0
2022-09-27T16:25:00.796Z,29883.8
2022-09-27T16:26:00.719Z,28978.6
2022-09-27T16:27:00.972Z,28151.7
2022-09-27T16:28:01.749Z,27324.9
2022-09-27T16:29:01.053Z,26569.2
2022-09-27T16:31:00.765Z,25057.9
2022-09-27T16:32:01.027Z,24369.2
2022-09-27T16:33:00.695Z,23680.5
2022-09-27T16:34:00.745Z,23047.2
2022-09-27T16:35:00.724Z,22413.9
2022-09-27T16:36:00.689Z,21780.5
2022-09-27T16:37:04.752Z,21173.3
2022-09-27T16:38:00.698Z,20566.0
2022-09-27T16:39:00.722Z,19976.6
2022-09-27T16:40:01.207Z,19387.2
2022-09-27T16:41:00.741Z,18797.8
2022-09-27T16:42:00.937Z,18218.2
2022-09-27T16:43:00.706Z,17638.6
2022-09-27T16:44:00.777Z,17065.1
2022-09-27T16:45:18.299Z,16491.5
2022-09-27T16:46:00.688Z,15918.0
2022-09-27T16:47:01.074Z,15332.0
2022-09-27T16:48:01.257Z,14746.0
2022-09-27T16:49:00.730Z,14157.5
2022-09-27T16:51:00.719Z,12980.6
2022-09-27T16:52:00.926Z,12398.3
2022-09-27T16:53:00.694Z,11815.9
2022-09-27T16:54:00.729Z,11238.1
2022-09-27T16:55:01.408Z,10660.2
2022-09-27T16:56:00.702Z,10082.3
2022-09-27T16:57:00.957Z,9518.5
2022-09-27T16:58:00.758Z,8954.7
2022-09-27T16:59:00.722Z,8417.3
2022-09-27T17:01:00.788Z,7342.5
2022-09-27T17:02:00.932Z,6861.0
2022-09-27T17:03:00.702Z,6379.5
2022-09-27T17:04:00.738Z,5951.9
2022-09-27T17:05:00.718Z,5524.4
2022-09-27T17:06:00.702Z,5096.9
2022-09-27T17:07:00.957Z,4730.3
2022-09-27T17:08:00.751Z,4363.7
2022-09-27T17:09:00.741Z,4055.9
2022-09-27T17:11:00.739Z,3440.5
2022-09-27T17:12:09.912Z,3182.3
2022-09-27T17:13:00.701Z,2924.1
2022-09-27T17:14:05.956Z,2703.7
2022-09-27T17:16:00.783Z,2262.9
2022-09-27T17:17:00.961Z,2075.1
2022-09-27T17:18:00.735Z,1887.3
2022-09-27T17:19:00.732Z,1728.3
2022-09-27T17:21:00.707Z,1410.3
2022-09-27T17:22:01.357Z,1277.9
2022-09-27T17:23:00.727Z,1145.5
2022-09-27T17:24:00.746Z,1037.7
2022-09-27T17:26:00.959Z,822.1
2022-09-27T17:27:00.906Z,736.3
2022-09-27T17:28:00.703Z,650.5
2022-09-27T17:29:00.992Z,582.9
2022-09-27T17:31:00.774Z,447.9
2022-09-27T17:32:01.933Z,394.8
2022-09-27T17:33:00.727Z,341.7
2022-09-27T17:34:00.778Z,301.9
2022-09-27T17:35:01.819Z,262.1
2022-09-27T17:36:00.723Z,222.3
2022-09-27T17:37:00.976Z,194.0
2022-09-27T17:38:00.750Z,165.7
2022-09-27T17:39:01.864Z,145.7
2022-09-27T17:40:13.076Z,125.7
2022-09-27T17:41:00.808Z,105.7
2022-09-27T17:42:00.980Z,91.3
2022-09-27T17:43:00.741Z,77.0
2022-09-27T17:44:00.843Z,66.9
2022-09-27T17:45:01.271Z,56.7
2022-09-27T17:46:00.772Z,46.6
2022-09-27T17:47:00.921Z,39.8
2022-09-27T17:48:00.714Z,33.0
2022-09-27T17:49:00.747Z,28.6
2022-09-27T17:51:00.713Z,19.8
2022-09-27T17:52:00.920Z,17.0
2022-09-27T17:53:00.710Z,14.2
2022-09-27T17:54:01.061Z,12.3
2022-09-27T17:55:01.039Z,10.5
2022-09-27T17:56:00.708Z,8.6
2022-09-27T17:57:02.980Z,7.4
2022-09-27T17:58:00.717Z,6.2
2022-09-27T17:59:00.749Z,5.4
2022-09-27T18:01:01.133Z,3.8
2022-09-27T18:02:00.986Z,3.3
2022-09-27T18:03:00.752Z,2.7
2022-09-27T18:04:00.765Z,2.4
2022-09-27T18:06:00.988Z,1.7
2022-09-27T18:07:01.207Z,1.5
2022-09-27T18:08:00.722Z,1.2
2022-09-27T18:09:00.819Z,1.1
2022-09-27T18:11:00.749Z,0.8
2022-09-27T18:12:00.929Z,0.7
2022-09-27T18:13:00.721Z,0.5
2022-09-27T18:15:01.547Z,0.4
2022-09-27T18:16:00.771Z,0.3
2022-09-27T18:18:00.962Z,0.2
2022-09-27T18:19:00.747Z,0.1
